Time;durP1;ratioP1;P1;durP2;ratioP2;P2;SDS_P1;SDS_P2;PMS_P1;PMS_P2;Temp;Humidity;BMP_temperature;BMP_pressure;BME280_temperature;BME280_humidity;BME280_pressure;Samples;Min_cycle;Max_cycle;Signal;HPM_P1;HPM_P2
2022/03/04 00:01:30;;;;;;;;;;;;;;;;;;5064655;28;19960;-71
2022/03/04 00:03:56;;;;;;;;;;;;;;;;;;5064294;28;20003;-71
2022/03/04 00:06:22;;;;;;;;;;;;;;;;;;5063423;28;21090;-72
2022/03/04 00:08:50;;;;;;;;;;;;;;;;;;5063214;28;19994;-70
2022/03/04 00:11:17;;;;;;;;;;;;;;;;;;5065608;28;19981;-71
2022/03/04 00:13:43;;;;;;;;;;;;;;;;;;5043158;28;20033;-71
2022/03/04 00:16:09;;;;;;;;;;;;;;;;;;5065790;28;20402;-70
2022/03/04 00:18:35;;;;;;;;;;;;;;;;;;5066917;28;19952;-71
2022/03/04 00:21:02;;;;;;;;;;;;;;;;;;5062636;28;19955;-71
2022/03/04 00:23:28;;;;;;;;;;;;;;;;;;5057956;28;20001;-70
2022/03/04 00:25:54;;;;;;;;;;;;;;;;;;5061232;28;19967;-71
2022/03/04 00:28:20;;;;;;;;;;;;;;;;;;5065532;28;19963;-71
2022/03/04 00:30:46;;;;;;;;;;;;;;;;;;5065308;28;20046;-71
2022/03/04 00:33:13;;;;;;;;;;;;;;;;;;5068235;28;20308;-70
2022/03/04 00:35:39;;;;;;;;;;;;;;;;;;5069405;28;19963;-71
2022/03/04 00:38:05;;;;;;;;;;;;;;;;;;5067370;28;19963;-71
2022/03/04 00:40:32;;;;;;;;;;;;;;;;;;5067118;28;19964;-71
2022/03/04 00:42:58;;;;;;;;;;;;;;;;;;5061823;28;19959;-71
2022/03/04 00:45:24;;;;;;;;;;;;;;;;;;5063745;28;20455;-72
2022/03/04 00:47:51;;;;;;;;;;;;;;;;;;5066312;28;19971;-72
2022/03/04 00:50:17;;;;;;;;;;;;;;;;;;5061469;28;19998;-71
2022/03/04 00:52:43;;;;;;;;;;;;;;;;;;5064177;28;19948;-71
2022/03/04 00:55:09;;;;;;;;;;;;;;;;;;5068939;28;19936;-72
2022/03/04 00:57:35;;;;;;;;;;;;;;;;;;5067180;28;19951;-71
2022/03/04 01:00:02;;;;;;;;;;;;;;;;;;5067309;28;20731;-72
2022/03/04 01:02:28;;;;;;;;;;;;;;;;;;5065459;28;19956;-71
2022/03/04 01:04:54;;;;;;;;;;;;;;;;;;5066519;28;20013;-71
2022/03/04 01:07:20;;;;;;;;;;;;;;;;;;5070067;28;19951;-71
2022/03/04 01:09:46;;;;;;;;;;;;;;;;;;5065396;28;19967;-71
2022/03/04 01:12:13;;;;;;;;;;;;;;;;;;5071258;28;21271;-72
2022/03/04 01:14:39;;;;;;;;;;;;;;;;;;5066886;28;20253;-71
2022/03/04 01:17:05;;;;;;;;;;;;;;;;;;5063241;28;19966;-71
2022/03/04 01:19:32;;;;;;;;;;;;;;;;;;5066296;28;20383;-71
2022/03/04 01:21:58;;;;;;;;;;;;;;;;;;5067210;28;19958;-71
2022/03/04 01:24:24;;;;;;;;;;;;;;;;;;5068242;28;20338;-71
2022/03/04 01:26:50;;;;;;;;;;;;;;;;;;5065105;28;20372;-72
2022/03/04 01:29:16;;;;;;;;;;;;;;;;;;5065287;28;19963;-71
2022/03/04 01:31:43;;;;;;;;;;;;;;;;;;5067842;28;20692;-71
2022/03/04 01:34:09;;;;;;;;;;;;;;;;;;5066461;28;19958;-71
2022/03/04 01:36:35;;;;;;;;;;;;;;;;;;5065489;28;19962;-71
2022/03/04 01:39:01;;;;;;;;;;;;;;;;;;5065671;28;20367;-72
2022/03/04 01:41:27;;;;;;;;;;;;;;;;;;5065226;28;19988;-72
2022/03/04 01:43:54;;;;;;;;;;;;;;;;;;5064252;28;19955;-71
2022/03/04 01:46:20;;;;;;;;;;;;;;;;;;5067695;28;19955;-72
2022/03/04 01:48:46;;;;;;;;;;;;;;;;;;5064666;28;19944;-72
2022/03/04 01:51:12;;;;;;;;;;;;;;;;;;5058179;28;21301;-71
2022/03/04 01:53:38;;;;;;;;;;;;;;;;;;5067177;28;20360;-72
2022/03/04 01:56:05;;;;;;;;;;;;;;;;;;5062760;28;19963;-72
2022/03/04 01:58:31;;;;;;;;;;;;;;;;;;5067339;28;19960;-72
2022/03/04 02:00:57;;;;;;;;;;;;;;;;;;5065354;28;19959;-72
2022/03/04 02:03:23;;;;;;;;;;;;;;;;;;5066094;28;19956;-71
2022/03/04 02:05:49;;;;;;;;;;;;;;;;;;5064749;28;19952;-72
2022/03/04 02:08:15;;;;;;;;;;;;;;;;;;5064865;28;20150;-72
2022/03/04 02:10:42;;;;;;;;;;;;;;;;;;5060721;28;19956;-71
2022/03/04 02:13:08;;;;;;;;;;;;;;;;;;5070132;28;19959;-70
2022/03/04 02:15:34;;;;;;;;;;;;;;;;;;5072424;28;19948;-70
2022/03/04 02:18:00;;;;;;;;;;;;;;;;;;5066809;28;19952;-71
2022/03/04 02:20:27;;;;;;;;;;;;;;;;;;5066481;28;20061;-70
2022/03/04 02:22:53;;;;;;;;;;;;;;;;;;5063918;28;19954;-71
2022/03/04 02:25:19;;;;;;;;;;;;;;;;;;5067315;28;19952;-71
2022/03/04 02:27:45;;;;;;;;;;;;;;;;;;5066965;28;19990;-71
2022/03/04 02:30:11;;;;;;;;;;;;;;;;;;5066030;28;19963;-70
2022/03/04 02:32:38;;;;;;;;;;;;;;;;;;5062783;28;19959;-71
2022/03/04 02:35:04;;;;;;;;;;;;;;;;;;5066196;28;19960;-71
2022/03/04 02:37:30;;;;;;;;;;;;;;;;;;5063763;28;19963;-70
2022/03/04 02:39:56;;;;;;;;;;;;;;;;;;5068167;28;20027;-70
2022/03/04 02:42:22;;;;;;;;;;;;;;;;;;5069719;28;19963;-70
2022/03/04 02:44:49;;;;;;;;;;;;;;;;;;5066442;28;19948;-71
2022/03/04 02:47:15;;;;;;;;;;;;;;;;;;5060007;28;19967;-70
2022/03/04 02:49:41;;;;;;;;;;;;;;;;;;5063681;28;19952;-71
2022/03/04 02:52:07;;;;;;;;;;;;;;;;;;5064674;28;20019;-71
2022/03/04 02:54:33;;;;;;;;;;;;;;;;;;5070347;28;19983;-71
2022/03/04 02:57:00;;;;;;;;;;;;;;;;;;5061738;28;19956;-70
2022/03/04 02:59:26;;;;;;;;;;;;;;;;;;5066301;28;19948;-71
2022/03/04 03:01:52;;;;;;;;;;;;;;;;;;5065966;28;20375;-71
2022/03/04 03:04:19;;;;;;;;;;;;;;;;;;5063855;28;19948;-71
2022/03/04 03:06:45;;;;;;;;;;;;;;;;;;5066683;28;19956;-71
2022/03/04 03:09:11;;;;;;;;;;;;;;;;;;5056562;28;19999;-70
2022/03/04 03:11:38;;;;;;;;;;;;;;;;;;5070289;28;19951;-71
2022/03/04 03:14:04;;;;;;;;;;;;;;;;;;5063590;28;19947;-71
2022/03/04 03:16:30;;;;;;;;;;;;;;;;;;5065245;28;19971;-71
2022/03/04 03:18:56;;;;;;;;;;;;;;;;;;5070381;28;19959;-71
2022/03/04 03:21:22;;;;;;;;;;;;;;;;;;5062859;28;20479;-71
2022/03/04 03:23:49;;;;;;;;;;;;;;;;;;5064488;28;19960;-71
2022/03/04 03:26:15;;;;;;;;;;;;;;;;;;5061737;28;19925;-72
2022/03/04 03:28:41;;;;;;;;;;;;;;;;;;5064807;28;20342;-72
2022/03/04 03:31:07;;;;;;;;;;;;;;;;;;5065438;28;20052;-71
2022/03/04 03:33:36;;;;;;;;;;;;;;;;;;5064662;28;19959;-71
2022/03/04 03:36:02;;;;;;;;;;;;;;;;;;5062136;28;19954;-71
2022/03/04 03:38:29;;;;;;;;;;;;;;;;;;5064749;28;19963;-71
2022/03/04 03:40:55;;;;;;;;;;;;;;;;;;5060404;28;19968;-72
2022/03/04 03:43:21;;;;;;;;;;;;;;;;;;5043540;28;19960;-71
2022/03/04 03:45:48;;;;;;;;;;;;;;;;;;5060031;28;20380;-71
2022/03/04 03:48:14;;;;;;;;;;;;;;;;;;5066531;28;19955;-71
2022/03/04 03:50:40;;;;;;;;;;;;;;;;;;5068168;28;20411;-71
2022/03/04 03:53:08;;;;;;;;;;;;;;;;;;5065279;28;19948;-70
2022/03/04 03:55:34;;;;;;;;;;;;;;;;;;5062751;28;19963;-71
2022/03/04 03:58:00;;;;;;;;;;;;;;;;;;5064877;28;19956;-71
2022/03/04 04:00:27;;;;;;;;;;;;;;;;;;5062261;28;20392;-71
2022/03/04 04:02:53;;;;;;;;;;;;;;;;;;5065702;28;19963;-71
2022/03/04 04:05:19;;;;;;;;;;;;;;;;;;5067567;28;19948;-71
2022/03/04 04:07:45;;;;;;;;;;;;;;;;;;5068582;28;19970;-71
2022/03/04 04:10:11;;;;;;;;;;;;;;;;;;5064787;28;20489;-72
2022/03/04 04:12:38;;;;;;;;;;;;;;;;;;5072883;28;19963;-71
2022/03/04 04:15:04;;;;;;;;;;;;;;;;;;5068630;28;20491;-72
2022/03/04 04:17:31;;;;;;;;;;;;;;;;;;5066520;28;19952;-72
2022/03/04 04:19:57;;;;;;;;;;;;;;;;;;5064061;28;19951;-71
2022/03/04 04:22:23;;;;;;;;;;;;;;;;;;5068391;28;19948;-71
2022/03/04 04:24:49;;;;;;;;;;;;;;;;;;5067414;28;20427;-71
2022/03/04 04:27:16;;;;;;;;;;;;;;;;;;5048045;28;19959;-71
2022/03/04 04:29:42;;;;;;;;;;;;;;;;;;5065515;28;19972;-72
2022/03/04 04:32:09;;;;;;;;;;;;;;;;;;5066783;28;19956;-70
2022/03/04 04:34:35;;;;;;;;;;;;;;;;;;5069315;28;19952;-71
2022/03/04 04:37:02;;;;;;;;;;;;;;;;;;5065897;28;19998;-70
2022/03/04 04:39:28;;;;;;;;;;;;;;;;;;5067651;28;20006;-71
2022/03/04 04:41:54;;;;;;;;;;;;;;;;;;5068800;28;20185;-70
2022/03/04 04:44:20;;;;;;;;;;;;;;;;;;5067893;28;20384;-70
2022/03/04 04:46:46;;;;;;;;;;;;;;;;;;5066439;28;19956;-70
2022/03/04 04:49:13;;;;;;;;;;;;;;;;;;5064942;28;20384;-70
2022/03/04 04:51:39;;;;;;;;;;;;;;;;;;5068655;28;19912;-70
2022/03/04 04:54:05;;;;;;;;;;;;;;;;;;5067500;28;19925;-71
2022/03/04 04:56:31;;;;;;;;;;;;;;;;;;5068056;28;19960;-70
2022/03/04 04:58:58;;;;;;;;;;;;;;;;;;5068118;28;20395;-70
2022/03/04 05:01:24;;;;;;;;;;;;;;;;;;5081019;28;19955;-71
2022/03/04 05:03:50;;;;;;;;;;;;;;;;;;5068101;28;20042;-71
2022/03/04 05:06:17;;;;;;;;;;;;;;;;;;5065983;28;19956;-70
2022/03/04 05:08:43;;;;;;;;;;;;;;;;;;5065656;28;19956;-70
2022/03/04 05:11:10;;;;;;;;;;;;;;;;;;5065908;28;19951;-70
2022/03/04 05:13:36;;;;;;;;;;;;;;;;;;5066509;28;19960;-70
2022/03/04 05:16:02;;;;;;;;;;;;;;;;;;5067473;28;20034;-69
2022/03/04 05:18:28;;;;;;;;;;;;;;;;;;5067389;28;19952;-70
2022/03/04 05:20:54;;;;;;;;;;;;;;;;;;5067047;28;19963;-70
2022/03/04 05:26:05;;;;;;;;;;;;;;;;;;5066190;28;19952;-69
2022/03/04 05:28:34;;;;;;;;;;;;;;;;;;5067605;28;20287;-69
2022/03/04 05:31:00;;;;;;;;;;;;;;;;;;5064200;28;19944;-70
2022/03/04 05:33:26;;;;;;;;;;;;;;;;;;5068378;28;19982;-70
2022/03/04 05:35:52;;;;;;;;;;;;;;;;;;5064707;28;19962;-69
2022/03/04 05:38:19;;;;;;;;;;;;;;;;;;5070248;28;19960;-70
2022/03/04 05:40:45;;;;;;;;;;;;;;;;;;5066720;28;19967;-68
2022/03/04 05:43:11;;;;;;;;;;;;;;;;;;5062785;28;20011;-71
2022/03/04 05:45:37;;;;;;;;;;;;;;;;;;5065286;28;19948;-69
2022/03/04 05:48:03;;;;;;;;;;;;;;;;;;5065934;28;19947;-71
2022/03/04 05:50:30;;;;;;;;;;;;;;;;;;5063507;27;19952;-70
2022/03/04 05:52:56;;;;;;;;;;;;;;;;;;5065679;28;19955;-69
2022/03/04 05:55:22;;;;;;;;;;;;;;;;;;5061704;28;19955;-71
2022/03/04 05:57:48;;;;;;;;;;;;;;;;;;5069741;28;19920;-69
2022/03/04 06:00:15;;;;;;;;;;;;;;;;;;5064177;28;19924;-69
2022/03/04 06:02:41;;;;;;;;;;;;;;;;;;5060309;28;19963;-69
2022/03/04 06:05:08;;;;;;;;;;;;;;;;;;5063336;28;19956;-69
2022/03/04 06:07:35;;;;;;;;;;;;;;;;;;5066403;28;20428;-70
2022/03/04 06:10:01;;;;;;;;;;;;;;;;;;5070009;28;19956;-70
2022/03/04 06:12:27;;;;;;;;;;;;;;;;;;5064182;28;20443;-71
2022/03/04 06:14:53;;;;;;;;;;;;;;;;;;5065339;28;19948;-71
2022/03/04 06:17:19;;;;;;;;;;;;;;;;;;5063358;28;20540;-71
2022/03/04 06:19:46;;;;;;;;;;;;;;;;;;5064130;28;19964;-71
2022/03/04 06:22:13;;;;;;;;;;;;;;;;;;5059922;28;20051;-72
2022/03/04 06:24:39;;;;;;;;;;;;;;;;;;5063023;28;19963;-73
2022/03/04 06:27:05;;;;;;;;;;;;;;;;;;5064092;28;19925;-71
2022/03/04 06:29:32;;;;;;;;;;;;;;;;;;5061503;28;19956;-70
2022/03/04 06:31:58;;;;;;;;;;;;;;;;;;5063848;28;19948;-68
2022/03/04 06:34:24;;;;;;;;;;;;;;;;;;5067039;28;20387;-69
2022/03/04 06:36:50;;;;;;;;;;;;;;;;;;5066713;28;19963;-69
2022/03/04 06:39:16;;;;;;;;;;;;;;;;;;5068097;28;19956;-68
2022/03/04 06:41:43;;;;;;;;;;;;;;;;;;5068735;28;19971;-68
2022/03/04 06:44:09;;;;;;;;;;;;;;;;;;5068636;28;19964;-69
2022/03/04 06:46:35;;;;;;;;;;;;;;;;;;5064971;28;19971;-68
2022/03/04 06:49:02;;;;;;;;;;;;;;;;;;5060445;28;19976;-69
2022/03/04 06:51:29;;;;;;;;;;;;;;;;;;5074790;28;19966;-69
2022/03/04 06:53:55;;;;;;;;;;;;;;;;;;5071153;28;19920;-70
2022/03/04 06:56:21;;;;;;;;;;;;;;;;;;5068909;28;19924;-69
2022/03/04 06:58:47;;;;;;;;;;;;;;;;;;5070077;28;20028;-69
2022/03/04 07:01:13;;;;;;;;;;;;;;;;;;5063823;28;19932;-69
2022/03/04 07:03:40;;;;;;;;;;;;;;;;;;5062565;28;19985;-69
2022/03/04 07:06:06;;;;;;;;;;;;;;;;;;5062825;28;19959;-69
2022/03/04 07:08:36;;;;;;;;;;;;;;;;;;5044370;28;19956;-70
2022/03/04 07:11:02;;;;;;;;;;;;;;;;;;5054405;28;19964;-68
2022/03/04 07:13:28;;;;;;;;;;;;;;;;;;5069700;28;19950;-68
2022/03/04 07:15:55;;;;;;;;;;;;;;;;;;5072214;28;19948;-68
2022/03/04 07:18:23;;;;;;;;;;;;;;;;;;5066132;28;19956;-68
2022/03/04 07:20:49;;;;;;;;;;;;;;;;;;5064820;28;19959;-68
2022/03/04 07:23:16;;;;;;;;;;;;;;;;;;5066410;28;19970;-68
2022/03/04 07:25:42;;;;;;;;;;;;;;;;;;5065667;28;19963;-69
2022/03/04 07:28:08;;;;;;;;;;;;;;;;;;5066553;28;19962;-69
2022/03/04 07:30:34;;;;;;;;;;;;;;;;;;5063101;28;19959;-69
2022/03/04 07:33:01;;;;;;;;;;;;;;;;;;5061963;28;19959;-69
2022/03/04 07:35:27;;;;;;;;;;;;;;;;;;5065806;28;19959;-69
2022/03/04 07:37:53;;;;;;;;;;;;;;;;;;5068612;28;19951;-69
2022/03/04 07:40:19;;;;;;;;;;;;;;;;;;5064138;28;20377;-69
2022/03/04 07:42:45;;;;;;;;;;;;;;;;;;5061433;28;20363;-69
2022/03/04 07:45:12;;;;;;;;;;;;;;;;;;5065113;28;19959;-69
2022/03/04 07:47:38;;;;;;;;;;;;;;;;;;5062636;28;19968;-69
2022/03/04 07:50:04;;;;;;;;;;;;;;;;;;5063038;28;19948;-69
2022/03/04 07:52:31;;;;;;;;;;;;;;;;;;5067812;28;20403;-69
2022/03/04 07:54:57;;;;;;;;;;;;;;;;;;5058691;28;20420;-69
2022/03/04 07:57:24;;;;;;;;;;;;;;;;;;5067678;28;19917;-69
2022/03/04 07:59:50;;;;;;;;;;;;;;;;;;5066156;28;19962;-69
2022/03/04 08:02:16;;;;;;;;;;;;;;;;;;5057078;28;20407;-69
2022/03/04 08:04:42;;;;;;;;;;;;;;;;;;5067545;28;20376;-69
2022/03/04 08:07:09;;;;;;;;;;;;;;;;;;5065704;28;19959;-68
2022/03/04 08:09:35;;;;;;;;;;;;;;;;;;5066678;28;20375;-68
2022/03/04 08:12:01;;;;;;;;;;;;;;;;;;5065438;28;19959;-68
2022/03/04 08:14:27;;;;;;;;;;;;;;;;;;5066732;28;20344;-69
2022/03/04 08:16:54;;;;;;;;;;;;;;;;;;5065865;28;19920;-69
2022/03/04 08:19:20;;;;;;;;;;;;;;;;;;5066700;28;19944;-68
2022/03/04 08:21:47;;;;;;;;;;;;;;;;;;5063874;28;19967;-69
2022/03/04 08:24:13;;;;;;;;;;;;;;;;;;5064607;28;19975;-69
2022/03/04 08:26:41;;;;;;;;;;;;;;;;;;5059793;28;19948;-69
2022/03/04 08:29:07;;;;;;;;;;;;;;;;;;5065696;28;19974;-69
2022/03/04 08:31:33;;;;;;;;;;;;;;;;;;5070489;28;20067;-69
2022/03/04 08:34:00;;;;;;;;;;;;;;;;;;5063833;28;19924;-69
2022/03/04 08:36:26;;;;;;;;;;;;;;;;;;5065344;28;20349;-69
2022/03/04 08:38:52;;;;;;;;;;;;;;;;;;5060809;28;19944;-69
2022/03/04 08:41:19;;;;;;;;;;;;;;;;;;5058860;28;19971;-69
2022/03/04 08:43:47;;;;;;;;;;;;;;;;;;5065926;28;19952;-69
2022/03/04 08:46:14;;;;;;;;;;;;;;;;;;5067313;28;19920;-69
2022/03/04 08:48:40;;;;;;;;;;;;;;;;;;5065204;28;19956;-68
2022/03/04 08:51:07;;;;;;;;;;;;;;;;;;5064401;28;19959;-69
2022/03/04 08:53:33;;;;;;;;;;;;;;;;;;5071042;28;19959;-69
2022/03/04 08:55:59;;;;;;;;;;;;;;;;;;5069133;28;20013;-68
2022/03/04 08:58:25;;;;;;;;;;;;;;;;;;5066774;28;19960;-69
2022/03/04 09:00:52;;;;;;;;;;;;;;;;;;5047385;28;19952;-68
2022/03/04 09:03:18;;;;;;;;;;;;;;;;;;5069954;28;19955;-68
2022/03/04 09:05:44;;;;;;;;;;;;;;;;;;5067689;28;19921;-68
2022/03/04 09:08:10;;;;;;;;;;;;;;;;;;5062989;28;19951;-69
2022/03/04 09:10:37;;;;;;;;;;;;;;;;;;5068992;28;20595;-69
2022/03/04 09:13:04;;;;;;;;;;;;;;;;;;5067186;28;19970;-69
2022/03/04 09:15:30;;;;;;;;;;;;;;;;;;5067360;28;20008;-68
2022/03/04 09:17:56;;;;;;;;;;;;;;;;;;5064504;28;20652;-69
2022/03/04 09:20:22;;;;;;;;;;;;;;;;;;5068244;28;19951;-69
2022/03/04 09:22:49;;;;;;;;;;;;;;;;;;5067531;28;19970;-69
2022/03/04 09:25:15;;;;;;;;;;;;;;;;;;5064277;28;20376;-68
2022/03/04 09:27:42;;;;;;;;;;;;;;;;;;5068633;28;19960;-68
2022/03/04 09:30:08;;;;;;;;;;;;;;;;;;5065379;28;19948;-69
2022/03/04 09:32:34;;;;;;;;;;;;;;;;;;5064685;28;19956;-69
2022/03/04 09:35:00;;;;;;;;;;;;;;;;;;5067276;28;19959;-68
2022/03/04 09:37:26;;;;;;;;;;;;;;;;;;5067204;28;19964;-69
2022/03/04 09:39:53;;;;;;;;;;;;;;;;;;5067925;28;19960;-69
2022/03/04 09:42:21;;;;;;;;;;;;;;;;;;5066080;28;19964;-69
2022/03/04 09:44:47;;;;;;;;;;;;;;;;;;5067524;28;19952;-69
2022/03/04 09:47:13;;;;;;;;;;;;;;;;;;5065459;28;19920;-70
2022/03/04 09:49:39;;;;;;;;;;;;;;;;;;5064984;28;19967;-69
2022/03/04 09:52:06;;;;;;;;;;;;;;;;;;5066320;28;19959;-69
2022/03/04 09:54:32;;;;;;;;;;;;;;;;;;5061326;28;19986;-68
2022/03/04 09:56:58;;;;;;;;;;;;;;;;;;5065435;28;19975;-68
2022/03/04 09:59:24;;;;;;;;;;;;;;;;;;5068861;28;19928;-69
2022/03/04 10:01:51;;;;;;;;;;;;;;;;;;5066459;28;20031;-70
2022/03/04 10:04:17;;;;;;;;;;;;;;;;;;5067060;28;19952;-68
2022/03/04 10:06:43;;;;;;;;;;;;;;;;;;5069653;28;20437;-69
2022/03/04 10:09:09;;;;;;;;;;;;;;;;;;5071612;28;19960;-69
2022/03/04 10:11:39;;;;;;;;;;;;;;;;;;5070535;28;19959;-69
2022/03/04 10:14:08;;;;;;;;;;;;;;;;;;5069142;28;19952;-69
2022/03/04 10:16:34;;;;;;;;;;;;;;;;;;5065814;28;20304;-69
2022/03/04 10:19:00;;;;;;;;;;;;;;;;;;5066826;28;19963;-69
2022/03/04 10:21:26;;;;;;;;;;;;;;;;;;5069122;28;20550;-68
2022/03/04 10:23:52;;;;;;;;;;;;;;;;;;5068219;28;19963;-68
2022/03/04 10:26:19;;;;;;;;;;;;;;;;;;5069173;28;20340;-68
2022/03/04 10:28:45;;;;;;;;;;;;;;;;;;5067254;28;19987;-68
2022/03/04 10:31:11;;;;;;;;;;;;;;;;;;5063788;28;20382;-69
2022/03/04 10:33:37;;;;;;;;;;;;;;;;;;5068613;28;19944;-69
2022/03/04 10:36:03;;;;;;;;;;;;;;;;;;5066848;28;20301;-69
2022/03/04 10:38:29;;;;;;;;;;;;;;;;;;5070581;28;19963;-68
2022/03/04 10:40:56;;;;;;;;;;;;;;;;;;5061978;28;20345;-69
2022/03/04 10:43:23;;;;;;;;;;;;;;;;;;5066469;28;19964;-69
2022/03/04 10:45:49;;;;;;;;;;;;;;;;;;5064836;28;19955;-70
2022/03/04 10:48:15;;;;;;;;;;;;;;;;;;5066551;28;19956;-70
2022/03/04 10:50:42;;;;;;;;;;;;;;;;;;5064350;28;19967;-69
2022/03/04 10:53:08;;;;;;;;;;;;;;;;;;5073496;28;19951;-69
2022/03/04 10:55:34;;;;;;;;;;;;;;;;;;5066048;28;20012;-69
2022/03/04 10:58:01;;;;;;;;;;;;;;;;;;5063249;28;19959;-69
2022/03/04 11:00:27;;;;;;;;;;;;;;;;;;5068570;28;19979;-72
2022/03/04 11:02:54;;;;;;;;;;;;;;;;;;5061793;28;19977;-72
2022/03/04 11:05:20;;;;;;;;;;;;;;;;;;5066112;28;20647;-72
2022/03/04 11:07:46;;;;;;;;;;;;;;;;;;5060982;28;20018;-75
2022/03/04 11:10:12;;;;;;;;;;;;;;;;;;5060087;28;19920;-72
2022/03/04 11:12:42;;;;;;;;;;;;;;;;;;5066384;27;19948;-71
2022/03/04 11:15:08;;;;;;;;;;;;;;;;;;5061112;28;19952;-71
2022/03/04 11:17:34;;;;;;;;;;;;;;;;;;5062555;28;19921;-71
2022/03/04 11:20:01;;;;;;;;;;;;;;;;;;5063152;28;19966;-71
2022/03/04 11:22:27;;;;;;;;;;;;;;;;;;5063615;28;19966;-71
2022/03/04 11:24:53;;;;;;;;;;;;;;;;;;5064315;28;20283;-71
2022/03/04 11:27:19;;;;;;;;;;;;;;;;;;5061697;28;19955;-71
2022/03/04 11:29:45;;;;;;;;;;;;;;;;;;5064164;27;19963;-71
2022/03/04 11:32:12;;;;;;;;;;;;;;;;;;5064225;28;19943;-72
2022/03/04 11:34:38;;;;;;;;;;;;;;;;;;5064480;28;19963;-72
2022/03/04 11:37:04;;;;;;;;;;;;;;;;;;5063908;28;19964;-72
2022/03/04 11:39:31;;;;;;;;;;;;;;;;;;5064854;28;19955;-73
2022/03/04 11:41:57;;;;;;;;;;;;;;;;;;5063491;28;19959;-73
2022/03/04 11:44:23;;;;;;;;;;;;;;;;;;5064507;28;19964;-71
2022/03/04 11:46:49;;;;;;;;;;;;;;;;;;5062133;28;20338;-71
2022/03/04 11:49:16;;;;;;;;;;;;;;;;;;5055147;28;20002;-71
2022/03/04 11:51:42;;;;;;;;;;;;;;;;;;5065375;28;19960;-71
2022/03/04 11:54:08;;;;;;;;;;;;;;;;;;5062478;28;19960;-71
2022/03/04 11:56:34;;;;;;;;;;;;;;;;;;5063411;28;20032;-71
2022/03/04 11:59:00;;;;;;;;;;;;;;;;;;5063031;28;19959;-71
2022/03/04 12:01:27;;;;;;;;;;;;;;;;;;5061092;28;19951;-72
2022/03/04 12:03:53;;;;;;;;;;;;;;;;;;5061066;28;19963;-72
2022/03/04 12:06:19;;;;;;;;;;;;;;;;;;5066293;28;19971;-72
2022/03/04 12:08:45;;;;;;;;;;;;;;;;;;5067918;28;19940;-72
2022/03/04 12:11:11;;;;;;;;;;;;;;;;;;5063763;28;19956;-72
2022/03/04 12:13:37;;;;;;;;;;;;;;;;;;5064833;28;19967;-72
2022/03/04 12:16:04;;;;;;;;;;;;;;;;;;5065516;28;19944;-72
2022/03/04 12:18:31;;;;;;;;;;;;;;;;;;5059971;28;19998;-72
2022/03/04 12:20:57;;;;;;;;;;;;;;;;;;5065924;28;20295;-72
2022/03/04 12:23:23;;;;;;;;;;;;;;;;;;5060818;28;19977;-72
2022/03/04 12:25:49;;;;;;;;;;;;;;;;;;5066929;28;20561;-71
2022/03/04 12:28:16;;;;;;;;;;;;;;;;;;5068662;28;20292;-71
2022/03/04 12:30:42;;;;;;;;;;;;;;;;;;5071246;28;19990;-71
2022/03/04 12:33:08;;;;;;;;;;;;;;;;;;5063936;28;20035;-71
2022/03/04 12:35:34;;;;;;;;;;;;;;;;;;5073787;28;20436;-71
2022/03/04 12:38:00;;;;;;;;;;;;;;;;;;5069291;28;19920;-71
2022/03/04 12:40:28;;;;;;;;;;;;;;;;;;5068988;28;19971;-71
2022/03/04 12:42:54;;;;;;;;;;;;;;;;;;5069132;28;19963;-72
2022/03/04 12:45:20;;;;;;;;;;;;;;;;;;5068659;28;19952;-71
2022/03/04 12:47:47;;;;;;;;;;;;;;;;;;5051838;28;20367;-71
2022/03/04 12:50:13;;;;;;;;;;;;;;;;;;5069254;28;20382;-71
2022/03/04 12:52:39;;;;;;;;;;;;;;;;;;5063888;28;19970;-71
2022/03/04 12:55:05;;;;;;;;;;;;;;;;;;5061100;28;20002;-71
2022/03/04 12:57:32;;;;;;;;;;;;;;;;;;5065674;28;19967;-71
2022/03/04 12:59:58;;;;;;;;;;;;;;;;;;5068756;28;20039;-71
2022/03/04 13:02:25;;;;;;;;;;;;;;;;;;5068265;28;19943;-72
2022/03/04 13:04:51;;;;;;;;;;;;;;;;;;5071258;28;20387;-72
2022/03/04 13:07:18;;;;;;;;;;;;;;;;;;5065178;28;19979;-71
2022/03/04 13:09:44;;;;;;;;;;;;;;;;;;5066541;28;20308;-70
2022/03/04 13:12:10;;;;;;;;;;;;;;;;;;5060233;28;19974;-71
2022/03/04 13:14:36;;;;;;;;;;;;;;;;;;5062898;28;20423;-71
2022/03/04 13:17:02;;;;;;;;;;;;;;;;;;5068710;28;19970;-72
2022/03/04 13:19:29;;;;;;;;;;;;;;;;;;5066539;28;19951;-70
2022/03/04 13:21:56;;;;;;;;;;;;;;;;;;5049531;28;19971;-71
2022/03/04 13:24:22;;;;;;;;;;;;;;;;;;5068338;28;19964;-70
2022/03/04 13:26:48;;;;;;;;;;;;;;;;;;5069258;28;19955;-70
2022/03/04 13:29:15;;;;;;;;;;;;;;;;;;5068464;28;19960;-70
2022/03/04 13:31:41;;;;;;;;;;;;;;;;;;5066507;28;19971;-70
2022/03/04 13:34:07;;;;;;;;;;;;;;;;;;5067772;28;19963;-70
2022/03/04 13:36:33;;;;;;;;;;;;;;;;;;5070397;28;19956;-70
2022/03/04 13:38:59;;;;;;;;;;;;;;;;;;5062978;28;20029;-70
2022/03/04 13:41:26;;;;;;;;;;;;;;;;;;5070017;28;19963;-70
2022/03/04 13:43:52;;;;;;;;;;;;;;;;;;5066548;28;19990;-71
2022/03/04 13:46:18;;;;;;;;;;;;;;;;;;5068295;28;19959;-70
2022/03/04 13:48:44;;;;;;;;;;;;;;;;;;5064534;28;19958;-71
2022/03/04 13:51:11;;;;;;;;;;;;;;;;;;5072967;28;20474;-70
2022/03/04 13:53:37;;;;;;;;;;;;;;;;;;5065687;28;19975;-70
2022/03/04 13:56:03;;;;;;;;;;;;;;;;;;5070927;28;20012;-71
2022/03/04 13:58:30;;;;;;;;;;;;;;;;;;5068021;28;19959;-70
2022/03/04 14:00:56;;;;;;;;;;;;;;;;;;5067139;28;19956;-71
2022/03/04 14:03:26;;;;;;;;;;;;;;;;;;5068386;28;19966;-70
2022/03/04 14:05:52;;;;;;;;;;;;;;;;;;5082739;28;20593;-71
2022/03/04 14:08:18;;;;;;;;;;;;;;;;;;5067238;28;19959;-70
2022/03/04 14:10:45;;;;;;;;;;;;;;;;;;5063681;28;19951;-70
2022/03/04 14:13:11;;;;;;;;;;;;;;;;;;5067123;28;19951;-70
2022/03/04 14:15:37;;;;;;;;;;;;;;;;;;5067636;28;20021;-70
2022/03/04 14:18:04;;;;;;;;;;;;;;;;;;5062844;28;20469;-70
2022/03/04 14:20:30;;;;;;;;;;;;;;;;;;5067109;28;20421;-70
2022/03/04 14:22:56;;;;;;;;;;;;;;;;;;5074384;28;19963;-71
2022/03/04 14:25:22;;;;;;;;;;;;;;;;;;5069464;28;20014;-70
2022/03/04 14:27:52;;;;;;;;;;;;;;;;;;5067000;28;19986;-70
2022/03/04 14:30:18;;;;;;;;;;;;;;;;;;5068040;28;20638;-71
2022/03/04 14:32:44;;;;;;;;;;;;;;;;;;5065583;28;19970;-70
2022/03/04 14:35:10;;;;;;;;;;;;;;;;;;5064732;28;20026;-70
2022/03/04 14:37:37;;;;;;;;;;;;;;;;;;5068665;28;19971;-70
2022/03/04 14:40:04;;;;;;;;;;;;;;;;;;5065886;28;19955;-70
2022/03/04 14:42:30;;;;;;;;;;;;;;;;;;5063095;28;20379;-69
2022/03/04 14:44:57;;;;;;;;;;;;;;;;;;5059715;28;19960;-70
2022/03/04 14:47:23;;;;;;;;;;;;;;;;;;5070599;28;20372;-70
2022/03/04 14:49:49;;;;;;;;;;;;;;;;;;5065497;28;19972;-70
2022/03/04 14:52:15;;;;;;;;;;;;;;;;;;5065608;28;19963;-71
2022/03/04 14:54:41;;;;;;;;;;;;;;;;;;5065954;27;20621;-83
2022/03/04 14:57:11;;;;;;;;;;;;;;;;;;5065507;28;19968;-70
2022/03/04 14:59:38;;;;;;;;;;;;;;;;;;5063731;28;20447;-70
2022/03/04 15:02:04;;;;;;;;;;;;;;;;;;5064293;28;19960;-70
2022/03/04 15:04:30;;;;;;;;;;;;;;;;;;5064010;28;19955;-70
2022/03/04 15:06:56;;;;;;;;;;;;;;;;;;5062398;28;19964;-70
2022/03/04 15:09:22;;;;;;;;;;;;;;;;;;5064125;28;19967;-69
2022/03/04 15:11:48;;;;;;;;;;;;;;;;;;5063325;28;19970;-68
2022/03/04 15:14:15;;;;;;;;;;;;;;;;;;5064740;28;19963;-68
2022/03/04 15:16:41;;;;;;;;;;;;;;;;;;5064964;28;19956;-69
2022/03/04 15:19:07;;;;;;;;;;;;;;;;;;5062147;28;19948;-69
2022/03/04 15:21:33;;;;;;;;;;;;;;;;;;5064303;28;19963;-69
2022/03/04 15:24:00;;;;;;;;;;;;;;;;;;5066129;28;19971;-69
2022/03/04 15:26:26;;;;;;;;;;;;;;;;;;5063659;28;20365;-69
2022/03/04 15:28:52;;;;;;;;;;;;;;;;;;5060082;28;20470;-68
2022/03/04 15:31:18;;;;;;;;;;;;;;;;;;5066154;28;19929;-70
2022/03/04 15:33:44;;;;;;;;;;;;;;;;;;5063329;27;19966;-69
2022/03/04 15:36:11;;;;;;;;;;;;;;;;;;5060273;28;20697;-69
2022/03/04 15:38:37;;;;;;;;;;;;;;;;;;5064687;28;19952;-68
2022/03/04 15:41:03;;;;;;;;;;;;;;;;;;5060049;28;19959;-69
2022/03/04 15:43:29;;;;;;;;;;;;;;;;;;5070387;28;19959;-68
2022/03/04 15:45:56;;;;;;;;;;;;;;;;;;5067356;28;19959;-68
2022/03/04 15:48:22;;;;;;;;;;;;;;;;;;5064576;28;19975;-68
2022/03/04 15:50:49;;;;;;;;;;;;;;;;;;5066479;28;20021;-69
2022/03/04 15:53:15;;;;;;;;;;;;;;;;;;5069264;28;19978;-68
2022/03/04 15:55:41;;;;;;;;;;;;;;;;;;5064472;28;20347;-69
2022/03/04 15:58:07;;;;;;;;;;;;;;;;;;5062042;28;19975;-69
2022/03/04 16:00:34;;;;;;;;;;;;;;;;;;5059792;28;19967;-69
2022/03/04 16:03:00;;;;;;;;;;;;;;;;;;5065194;28;19944;-68
2022/03/04 16:05:26;;;;;;;;;;;;;;;;;;5060134;28;19952;-69
2022/03/04 16:07:54;;;;;;;;;;;;;;;;;;5063269;28;20023;-69
2022/03/04 16:10:22;;;;;;;;;;;;;;;;;;5064888;28;19956;-68
2022/03/04 16:12:48;;;;;;;;;;;;;;;;;;5064558;28;19974;-69
2022/03/04 16:15:14;;;;;;;;;;;;;;;;;;5060152;28;20368;-69
2022/03/04 16:17:40;;;;;;;;;;;;;;;;;;5062414;28;19959;-70
2022/03/04 16:20:07;;;;;;;;;;;;;;;;;;5061681;28;19948;-70
2022/03/04 16:22:33;;;;;;;;;;;;;;;;;;5061390;28;19948;-71
2022/03/04 16:24:59;;;;;;;;;;;;;;;;;;5061263;28;20384;-70
2022/03/04 16:27:25;;;;;;;;;;;;;;;;;;5065067;28;19962;-71
2022/03/04 16:29:52;;;;;;;;;;;;;;;;;;5062160;28;19986;-70
2022/03/04 16:32:18;;;;;;;;;;;;;;;;;;5063548;28;19962;-70
2022/03/04 16:34:46;;;;;;;;;;;;;;;;;;5064052;28;20003;-69
2022/03/04 16:37:12;;;;;;;;;;;;;;;;;;5064814;28;19989;-69
2022/03/04 16:39:38;;;;;;;;;;;;;;;;;;5066213;28;20002;-71
2022/03/04 16:42:05;;;;;;;;;;;;;;;;;;5063836;28;20013;-71